Flight Track Log - Related Links

Times and Time Zones

All times are in EDT time to prevent confusion due to time zone crossing. See the ASQ5947 flight status page for this flight to view local times or setup timezone preferences in your user account.

Time Position Orientation Groundspeed Altitude Reporting Facility
EDT Latitude Longitude Course Direction KTS MPH feet Rate Location/Type
Thu 05:18:09 PM 38.9500 -77.5000 254° West 182 209 1,700  Level Potomac TRACON
Thu 05:19:52 PM 38.9211 -77.6328 239° Southwest 219 252 6,100 1,939 Climbing Washington Center
Thu 05:20:53 PM 38.8864 -77.7064 240° Southwest 242 278 7,000 1,082 Climbing Washington Center
Thu 05:21:54 PM 38.8539 -77.7775 239° Southwest 249 287 8,300 1,750 Climbing Washington Center
Thu 05:22:53 PM 38.8128 -77.8669 266° West 256 295 10,500 1,650 Climbing Washington Center
Thu 05:23:54 PM 38.8064 -77.9733 284° West 274 315 11,600 1,462 Climbing Washington Center
Thu 05:24:52 PM 38.8272 -78.0778 283° West 290 334 13,400 1,714 Climbing Washington Center
Thu 05:25:53 PM 38.8478 -78.1906 273° West 305 351 15,000 1,525 Climbing Washington Center
Thu 05:26:54 PM 38.8517 -78.3053 268° West 320 368 16,500 984 Climbing Washington Center
Thu 05:27:55 PM 38.8489 -78.4225 269° West 325 374 17,000 254 Climbing Washington Center
Thu 05:28:52 PM 38.8478 -78.5478 268° West 338 389 17,000  Level Washington Center
Thu 05:29:53 PM 38.8447 -78.6728 268° West 350 403 17,000 50 Level Washington Center
Thu 05:30:53 PM 38.8417 -78.7953 260° West 350 403 17,100 942 Climbing Washington Center
Thu 05:31:54 PM 38.8258 -78.9144 257° West 350 403 18,900 1,884 Climbing Washington Center
Thu 05:32:54 PM 38.8061 -79.0256 259° West 339 390 20,900 1,950 Climbing Washington Center
Thu 05:33:54 PM 38.7906 -79.1261 262° West 329 379 22,800 1,576 Climbing Washington Center
Thu 05:34:52 PM 38.7764 -79.2558 258° West 329 379 24,000 610 Climbing Washington Center
Thu 05:35:52 PM 38.7558 -79.3772 258° West 342 394 24,000 -298 Level Washington Center
Thu 05:36:53 PM 38.7350 -79.5067 259° West 360 414 23,400 -1,033 Descending Washington Center
Thu 05:37:54 PM 38.7164 -79.6256 257° West 380 437 21,900 -1,513 Descending Washington Center
Thu 05:38:52 PM 38.6933 -79.7544 259° West 380 437 20,400 1,059 Descending Washington Center
Thu 05:39:53 PM 38.6744 -79.8783 257° West 375 432 24,000 -1,328 Climbing Washington Center
Thu 05:40:54 PM 38.6533 -79.9994 258° West 364 419 17,700 -3,443 Descending Washington Center
Thu 05:41:55 PM 38.6317 -80.1336 257° West 357 411 17,000 -356 Descending Washington Center
Thu 05:42:52 PM 38.6081 -80.2600 258° West 357 411 17,000 -596 Level Washington Center
Thu 05:44:16 PM 38.5811 -80.4222 257° West 348 400 15,600 -1,667 Descending Indianapolis Center
Thu 05:45:16 PM 38.5628 -80.5211 260° West 316 364 13,000 -1,950 Descending Indianapolis Center
Thu 05:46:16 PM 38.5486 -80.6200 256° West 311 358 11,700 -1,000 Descending Indianapolis Center
Thu 05:47:16 PM 38.5264 -80.7350 259° West 324 373 11,000 -350 Descending Indianapolis Center
Thu 05:48:16 PM 38.5083 -80.8500 256° West 330 380 11,000 -450 Level Indianapolis Center
Thu 05:49:16 PM 38.4894 -80.9436 259° West 308 354 10,100 -1,300 Descending Indianapolis Center
Thu 05:50:16 PM 38.4767 -81.0261 258° West 273 314 8,400 -1,600 Descending Indianapolis Center
Thu 05:51:16 PM 38.4619 -81.1142 256° West 256 295 6,900 -1,200 Descending Indianapolis Center
Thu 05:52:16 PM 38.4447 -81.1997 261° West 250 288 6,000 -1,050 Descending Indianapolis Center
Thu 05:53:16 PM 38.4339 -81.2850 262° West 250 288 4,800 -1,200 Descending Indianapolis Center
Thu 05:54:16 PM 38.4250 -81.3672 271° West 250 288 3,600 -1,050 Descending Indianapolis Center
Thu 05:55:16 PM 38.4264 -81.4442 261° West 233 268 2,700 -600 Descending Indianapolis Center
Thu 05:56:16 PM 38.4192 -81.5053 252° West 204 235 2,400 -500 Descending Indianapolis Center
Thu 05:57:16 PM 38.4075 -81.5508 247° West 168 193 1,700 -550 Descending Indianapolis Center
Thu 05:58:16 PM 38.3897 -81.6042 247° West 151 174 1,300 -400 Descending Indianapolis Center

Login

Don't have an account? Register now (free) for customized features, flight alerts, and more!